sensor_id;sensor_type;location;lat;lon;timestamp;P1;durP1;ratioP1;P2;durP2;ratioP2
21416;SDS011;10869;52.238;10.716;2022-09-09T03:02:17;1999.90;;;999.90;;
21416;SDS011;10869;52.238;10.716;2022-09-09T03:04:43;1999.90;;;999.90;;
21416;SDS011;10869;52.238;10.716;2022-09-09T03:07:15;1999.90;;;999.90;;
21416;SDS011;10869;52.238;10.716;2022-09-09T03:09:42;1999.90;;;999.90;;
21416;SDS011;10869;52.238;10.716;2022-09-09T03:12:08;88.97;;;84.17;;
21416;SDS011;10869;52.238;10.716;2022-09-09T03:14:35;140.80;;;133.50;;
21416;SDS011;10869;52.238;10.716;2022-09-09T03:17:01;28.47;;;26.40;;
21416;SDS011;10869;52.238;10.716;2022-09-09T03:19:27;12.13;;;10.93;;
21416;SDS011;10869;52.238;10.716;2022-09-09T03:21:53;4.70;;;3.63;;
21416;SDS011;10869;52.238;10.716;2022-09-09T03:24:19;63.87;;;47.10;;
21416;SDS011;10869;52.238;10.716;2022-09-09T03:26:45;4.10;;;1.63;;
21416;SDS011;10869;52.238;10.716;2022-09-09T03:29:12;4.80;;;1.50;;
21416;SDS011;10869;52.238;10.716;2022-09-09T03:31:38;4.27;;;1.87;;
21416;SDS011;10869;52.238;10.716;2022-09-09T03:34:04;6.80;;;6.30;;
21416;SDS011;10869;52.238;10.716;2022-09-09T03:36:30;2.67;;;0.83;;
21416;SDS011;10869;52.238;10.716;2022-09-09T03:38:56;66.47;;;27.17;;
21416;SDS011;10869;52.238;10.716;2022-09-09T03:41:23;2.13;;;1.10;;
21416;SDS011;10869;52.238;10.716;2022-09-09T03:43:50;2.77;;;1.20;;
21416;SDS011;10869;52.238;10.716;2022-09-09T03:46:16;5.93;;;1.67;;
21416;SDS011;10869;52.238;10.716;2022-09-09T03:52:08;11.80;;;0.97;;
21416;SDS011;10869;52.238;10.716;2022-09-09T03:54:35;2.87;;;0.77;;
21416;SDS011;10869;52.238;10.716;2022-09-09T03:57:04;4.17;;;1.43;;
21416;SDS011;10869;52.238;10.716;2022-09-09T03:59:30;4.00;;;1.57;;
21416;SDS011;10869;52.238;10.716;2022-09-09T04:02:06;5.13;;;1.50;;
21416;SDS011;10869;52.238;10.716;2022-09-09T04:04:40;37.67;;;33.87;;
21416;SDS011;10869;52.238;10.716;2022-09-09T04:07:11;35.93;;;32.60;;
21416;SDS011;10869;52.238;10.716;2022-09-09T04:09:48;86.37;;;79.40;;
21416;SDS011;10869;52.238;10.716;2022-09-09T04:12:22;1999.90;;;999.90;;
21416;SDS011;10869;52.238;10.716;2022-09-09T04:15:52;1999.90;;;999.90;;
21416;SDS011;10869;52.238;10.716;2022-09-09T04:18:24;1999.90;;;999.90;;
21416;SDS011;10869;52.238;10.716;2022-09-09T04:20:52;1999.90;;;999.90;;
21416;SDS011;10869;52.238;10.716;2022-09-09T04:23:24;393.77;;;194.83;;
21416;SDS011;10869;52.238;10.716;2022-09-09T04:25:54;19.40;;;17.60;;
21416;SDS011;10869;52.238;10.716;2022-09-09T04:28:24;94.47;;;89.47;;
21416;SDS011;10869;52.238;10.716;2022-09-09T04:31:08;94.43;;;88.23;;
21416;SDS011;10869;52.238;10.716;2022-09-09T04:33:39;86.33;;;80.47;;
21416;SDS011;10869;52.238;10.716;2022-09-09T04:36:06;54.07;;;51.07;;
21416;SDS011;10869;52.238;10.716;2022-09-09T04:38:34;331.97;;;316.70;;
21416;SDS011;10869;52.238;10.716;2022-09-09T04:41:01;152.53;;;145.07;;
21416;SDS011;10869;52.238;10.716;2022-09-09T04:43:30;452.47;;;431.43;;
21416;SDS011;10869;52.238;10.716;2022-09-09T04:46:02;322.80;;;308.10;;
21416;SDS011;10869;52.238;10.716;2022-09-09T04:48:31;51.10;;;47.97;;
21416;SDS011;10869;52.238;10.716;2022-09-09T04:51:01;114.93;;;105.80;;
21416;SDS011;10869;52.238;10.716;2022-09-09T04:58:43;40.90;;;38.20;;
21416;SDS011;10869;52.238;10.716;2022-09-09T05:01:14;13.43;;;12.17;;
21416;SDS011;10869;52.238;10.716;2022-09-09T05:03:43;17.20;;;15.60;;
21416;SDS011;10869;52.238;10.716;2022-09-09T05:06:14;19.33;;;17.70;;
21416;SDS011;10869;52.238;10.716;2022-09-09T05:08:42;9.87;;;4.90;;
21416;SDS011;10869;52.238;10.716;2022-09-09T05:11:15;8.47;;;7.47;;
21416;SDS011;10869;52.238;10.716;2022-09-09T05:13:52;13.87;;;12.70;;
21416;SDS011;10869;52.238;10.716;2022-09-09T05:16:18;42.60;;;24.57;;
21416;SDS011;10869;52.238;10.716;2022-09-09T05:18:45;7.13;;;6.43;;
21416;SDS011;10869;52.238;10.716;2022-09-09T05:21:11;8.93;;;7.40;;
21416;SDS011;10869;52.238;10.716;2022-09-09T05:23:39;5.43;;;4.80;;
21416;SDS011;10869;52.238;10.716;2022-09-09T05:26:05;5.93;;;5.37;;
21416;SDS011;10869;52.238;10.716;2022-09-09T05:28:34;10.10;;;7.80;;
21416;SDS011;10869;52.238;10.716;2022-09-09T05:31:04;8.53;;;7.33;;
21416;SDS011;10869;52.238;10.716;2022-09-09T05:33:36;7.13;;;6.43;;
21416;SDS011;10869;52.238;10.716;2022-09-09T05:39:27;5.07;;;4.63;;
21416;SDS011;10869;52.238;10.716;2022-09-09T05:45:15;43.80;;;40.47;;
21416;SDS011;10869;52.238;10.716;2022-09-09T05:51:03;10.57;;;8.47;;
21416;SDS011;10869;52.238;10.716;2022-09-09T05:53:32;19.23;;;10.43;;
21416;SDS011;10869;52.238;10.716;2022-09-09T05:56:03;30.77;;;7.47;;
21416;SDS011;10869;52.238;10.716;2022-09-09T05:58:35;1999.90;;;999.90;;
21416;SDS011;10869;52.238;10.716;2022-09-09T06:01:06;1999.90;;;999.90;;
21416;SDS011;10869;52.238;10.716;2022-09-09T06:03:38;1999.90;;;999.90;;
21416;SDS011;10869;52.238;10.716;2022-09-09T06:06:06;1999.90;;;999.90;;
21416;SDS011;10869;52.238;10.716;2022-09-09T06:08:35;1999.90;;;999.90;;
21416;SDS011;10869;52.238;10.716;2022-09-09T06:14:25;1999.90;;;999.90;;
21416;SDS011;10869;52.238;10.716;2022-09-09T06:20:14;1999.90;;;999.90;;
21416;SDS011;10869;52.238;10.716;2022-09-09T06:22:40;1999.90;;;999.90;;
21416;SDS011;10869;52.238;10.716;2022-09-09T06:31:12;1999.90;;;999.90;;
21416;SDS011;10869;52.238;10.716;2022-09-09T06:33:41;1999.90;;;999.90;;
21416;SDS011;10869;52.238;10.716;2022-09-09T06:36:13;1999.90;;;999.90;;
21416;SDS011;10869;52.238;10.716;2022-09-09T06:38:45;1999.90;;;999.90;;
21416;SDS011;10869;52.238;10.716;2022-09-09T06:41:17;1999.90;;;999.90;;
21416;SDS011;10869;52.238;10.716;2022-09-09T06:43:47;1999.90;;;999.90;;
21416;SDS011;10869;52.238;10.716;2022-09-09T06:46:14;1999.90;;;999.90;;
21416;SDS011;10869;52.238;10.716;2022-09-09T06:48:43;1999.90;;;999.90;;
21416;SDS011;10869;52.238;10.716;2022-09-09T06:51:11;1999.90;;;999.90;;
21416;SDS011;10869;52.238;10.716;2022-09-09T07:00:22;1999.90;;;999.90;;
21416;SDS011;10869;52.238;10.716;2022-09-09T07:02:50;1999.90;;;999.90;;
21416;SDS011;10869;52.238;10.716;2022-09-09T07:05:16;1999.90;;;999.90;;
21416;SDS011;10869;52.238;10.716;2022-09-09T07:07:42;1999.90;;;999.90;;
21416;SDS011;10869;52.238;10.716;2022-09-09T07:10:08;1999.90;;;999.90;;
21416;SDS011;10869;52.238;10.716;2022-09-09T07:12:34;1999.90;;;999.90;;
21416;SDS011;10869;52.238;10.716;2022-09-09T07:14:59;1999.90;;;999.90;;
21416;SDS011;10869;52.238;10.716;2022-09-09T07:17:25;1999.90;;;999.90;;
21416;SDS011;10869;52.238;10.716;2022-09-09T07:23:16;1999.90;;;999.90;;
21416;SDS011;10869;52.238;10.716;2022-09-09T07:25:46;1999.90;;;999.90;;
21416;SDS011;10869;52.238;10.716;2022-09-09T07:31:36;1999.90;;;999.90;;
21416;SDS011;10869;52.238;10.716;2022-09-09T07:34:04;1999.90;;;999.90;;
21416;SDS011;10869;52.238;10.716;2022-09-09T07:36:31;1999.90;;;999.90;;
21416;SDS011;10869;52.238;10.716;2022-09-09T07:39:08;1999.90;;;999.90;;
21416;SDS011;10869;52.238;10.716;2022-09-09T07:41:37;1999.90;;;999.90;;
21416;SDS011;10869;52.238;10.716;2022-09-09T07:44:11;1999.90;;;999.90;;
21416;SDS011;10869;52.238;10.716;2022-09-09T07:46:50;1999.90;;;999.90;;
21416;SDS011;10869;52.238;10.716;2022-09-09T07:49:26;1999.90;;;999.90;;
21416;SDS011;10869;52.238;10.716;2022-09-09T07:51:55;1999.90;;;999.90;;
21416;SDS011;10869;52.238;10.716;2022-09-09T07:54:21;1999.90;;;999.90;;
21416;SDS011;10869;52.238;10.716;2022-09-09T07:56:50;1999.90;;;999.90;;
21416;SDS011;10869;52.238;10.716;2022-09-09T07:59:26;1999.90;;;999.90;;
21416;SDS011;10869;52.238;10.716;2022-09-09T08:01:55;1999.90;;;999.90;;
21416;SDS011;10869;52.238;10.716;2022-09-09T08:04:22;1999.90;;;999.90;;
21416;SDS011;10869;52.238;10.716;2022-09-09T08:06:56;1999.90;;;999.90;;
21416;SDS011;10869;52.238;10.716;2022-09-09T08:16:09;1999.90;;;999.90;;
21416;SDS011;10869;52.238;10.716;2022-09-09T08:18:37;1999.90;;;999.90;;
21416;SDS011;10869;52.238;10.716;2022-09-09T08:21:08;1999.90;;;999.90;;
21416;SDS011;10869;52.238;10.716;2022-09-09T08:23:40;1999.90;;;999.90;;
21416;SDS011;10869;52.238;10.716;2022-09-09T08:26:08;1999.90;;;999.90;;
21416;SDS011;10869;52.238;10.716;2022-09-09T08:28:40;1999.90;;;999.90;;
21416;SDS011;10869;52.238;10.716;2022-09-09T08:31:06;1999.90;;;999.90;;
21416;SDS011;10869;52.238;10.716;2022-09-09T08:33:35;1999.90;;;999.90;;
21416;SDS011;10869;52.238;10.716;2022-09-09T08:36:03;1999.90;;;999.90;;
21416;SDS011;10869;52.238;10.716;2022-09-09T08:38:30;1999.90;;;999.90;;
21416;SDS011;10869;52.238;10.716;2022-09-09T08:41:23;1999.90;;;999.90;;
21416;SDS011;10869;52.238;10.716;2022-09-09T08:43:43;1999.90;;;999.90;;
21416;SDS011;10869;52.238;10.716;2022-09-09T08:51:20;1999.90;;;999.90;;
21416;SDS011;10869;52.238;10.716;2022-09-09T08:53:49;1999.90;;;999.90;;
21416;SDS011;10869;52.238;10.716;2022-09-09T08:56:18;1999.90;;;999.90;;
21416;SDS011;10869;52.238;10.716;2022-09-09T08:58:49;1999.90;;;999.90;;
21416;SDS011;10869;52.238;10.716;2022-09-09T09:12:40;1999.90;;;999.90;;
21416;SDS011;10869;52.238;10.716;2022-09-09T09:15:31;1999.90;;;999.90;;
21416;SDS011;10869;52.238;10.716;2022-09-09T09:18:02;1999.90;;;999.90;;
21416;SDS011;10869;52.238;10.716;2022-09-09T09:20:33;1999.90;;;999.90;;
21416;SDS011;10869;52.238;10.716;2022-09-09T09:23:13;113.73;;;107.70;;
21416;SDS011;10869;52.238;10.716;2022-09-09T09:25:46;104.88;;;99.10;;
21416;SDS011;10869;52.238;10.716;2022-09-09T09:28:13;42.13;;;39.47;;
21416;SDS011;10869;52.238;10.716;2022-09-09T09:33:23;49.63;;;46.50;;
21416;SDS011;10869;52.238;10.716;2022-09-09T09:36:00;31.13;;;28.87;;
21416;SDS011;10869;52.238;10.716;2022-09-09T09:38:28;17.80;;;16.07;;
21416;SDS011;10869;52.238;10.716;2022-09-09T09:40:55;10.27;;;8.27;;
21416;SDS011;10869;52.238;10.716;2022-09-09T09:45:59;9.03;;;6.77;;
21416;SDS011;10869;52.238;10.716;2022-09-09T09:48:29;9.33;;;5.30;;
21416;SDS011;10869;52.238;10.716;2022-09-09T09:53:27;10.73;;;4.33;;
21416;SDS011;10869;52.238;10.716;2022-09-09T09:56:03;7.50;;;4.23;;
21416;SDS011;10869;52.238;10.716;2022-09-09T09:58:30;8.40;;;4.23;;
21416;SDS011;10869;52.238;10.716;2022-09-09T10:00:59;106.43;;;96.03;;
21416;SDS011;10869;52.238;10.716;2022-09-09T10:03:27;37.97;;;35.17;;
21416;SDS011;10869;52.238;10.716;2022-09-09T10:05:53;66.80;;;62.93;;
21416;SDS011;10869;52.238;10.716;2022-09-09T10:17:09;19.80;;;13.67;;
21416;SDS011;10869;52.238;10.716;2022-09-09T10:22:46;20.67;;;19.07;;
21416;SDS011;10869;52.238;10.716;2022-09-09T10:35:34;15.20;;;13.90;;
21416;SDS011;10869;52.238;10.716;2022-09-09T10:51:45;1999.90;;;999.90;;
21416;SDS011;10869;52.238;10.716;2022-09-09T10:54:32;1999.90;;;999.90;;
21416;SDS011;10869;52.238;10.716;2022-09-09T10:57:45;1999.90;;;999.90;;
21416;SDS011;10869;52.238;10.716;2022-09-09T11:00:13;1999.90;;;999.90;;
21416;SDS011;10869;52.238;10.716;2022-09-09T11:02:45;1999.90;;;999.90;;
21416;SDS011;10869;52.238;10.716;2022-09-09T11:06:18;1999.90;;;999.90;;
21416;SDS011;10869;52.238;10.716;2022-09-09T11:08:24;1999.90;;;999.90;;
21416;SDS011;10869;52.238;10.716;2022-09-09T11:21:49;1999.90;;;999.90;;
21416;SDS011;10869;52.238;10.716;2022-09-09T11:27:50;1999.90;;;999.90;;
21416;SDS011;10869;52.238;10.716;2022-09-09T11:30:58;1999.90;;;999.90;;
21416;SDS011;10869;52.238;10.716;2022-09-09T11:43:47;1999.90;;;999.90;;
21416;SDS011;10869;52.238;10.716;2022-09-09T11:49:41;48.03;;;45.03;;
21416;SDS011;10869;52.238;10.716;2022-09-09T11:55:30;1999.90;;;999.90;;
21416;SDS011;10869;52.238;10.716;2022-09-09T11:58:02;1999.90;;;999.90;;
21416;SDS011;10869;52.238;10.716;2022-09-09T12:06:46;159.20;;;39.77;;
21416;SDS011;10869;52.238;10.716;2022-09-09T12:09:23;1999.90;;;999.90;;
21416;SDS011;10869;52.238;10.716;2022-09-09T12:15:31;152.07;;;79.80;;
21416;SDS011;10869;52.238;10.716;2022-09-09T12:17:57;17.17;;;10.27;;
21416;SDS011;10869;52.238;10.716;2022-09-09T12:26:54;10.40;;;1.70;;
21416;SDS011;10869;52.238;10.716;2022-09-09T12:29:58;5.93;;;1.40;;
21416;SDS011;10869;52.238;10.716;2022-09-09T12:32:28;5.03;;;1.20;;
21416;SDS011;10869;52.238;10.716;2022-09-09T12:34:56;17.53;;;1.37;;
21416;SDS011;10869;52.238;10.716;2022-09-09T12:40:27;5.43;;;1.37;;
21416;SDS011;10869;52.238;10.716;2022-09-09T12:42:54;5.57;;;0.90;;
21416;SDS011;10869;52.238;10.716;2022-09-09T12:45:26;7.07;;;1.33;;
21416;SDS011;10869;52.238;10.716;2022-09-09T12:48:01;2.10;;;0.70;;
21416;SDS011;10869;52.238;10.716;2022-09-09T12:50:38;5.87;;;1.33;;
21416;SDS011;10869;52.238;10.716;2022-09-09T12:53:12;5.13;;;1.27;;
21416;SDS011;10869;52.238;10.716;2022-09-09T12:55:48;5.83;;;1.23;;
21416;SDS011;10869;52.238;10.716;2022-09-09T13:01:39;7.77;;;1.13;;
21416;SDS011;10869;52.238;10.716;2022-09-09T13:04:15;1999.90;;;999.90;;
21416;SDS011;10869;52.238;10.716;2022-09-09T13:10:10;578.23;;;135.97;;
21416;SDS011;10869;52.238;10.716;2022-09-09T13:12:37;4.80;;;1.00;;
21416;SDS011;10869;52.238;10.716;2022-09-09T13:15:04;3.20;;;0.80;;
21416;SDS011;10869;52.238;10.716;2022-09-09T13:17:35;4.33;;;1.00;;
21416;SDS011;10869;52.238;10.716;2022-09-09T13:20:01;4.40;;;0.93;;
21416;SDS011;10869;52.238;10.716;2022-09-09T13:22:31;4.90;;;1.00;;
21416;SDS011;10869;52.238;10.716;2022-09-09T13:27:40;2.87;;;0.73;;
21416;SDS011;10869;52.238;10.716;2022-09-09T13:30:18;5.10;;;0.97;;
21416;SDS011;10869;52.238;10.716;2022-09-09T13:35:32;4.90;;;0.97;;
21416;SDS011;10869;52.238;10.716;2022-09-09T13:37:58;3.43;;;1.03;;
21416;SDS011;10869;52.238;10.716;2022-09-09T13:40:32;5.60;;;1.07;;
21416;SDS011;10869;52.238;10.716;2022-09-09T13:42:59;3.70;;;0.90;;
21416;SDS011;10869;52.238;10.716;2022-09-09T13:45:27;4.10;;;1.00;;
21416;SDS011;10869;52.238;10.716;2022-09-09T13:47:53;88.23;;;5.73;;
21416;SDS011;10869;52.238;10.716;2022-09-09T13:52:46;4.03;;;0.70;;
21416;SDS011;10869;52.238;10.716;2022-09-09T13:55:14;4.27;;;0.77;;
21416;SDS011;10869;52.238;10.716;2022-09-09T14:01:02;6.17;;;0.90;;
21416;SDS011;10869;52.238;10.716;2022-09-09T14:03:28;5.93;;;1.03;;
21416;SDS011;10869;52.238;10.716;2022-09-09T14:09:16;6.00;;;0.80;;
21416;SDS011;10869;52.238;10.716;2022-09-09T14:11:43;7.90;;;1.30;;
21416;SDS011;10869;52.238;10.716;2022-09-09T14:14:13;5.53;;;0.80;;
21416;SDS011;10869;52.238;10.716;2022-09-09T14:16:39;5.57;;;0.90;;
21416;SDS011;10869;52.238;10.716;2022-09-09T14:19:05;3.60;;;1.00;;
21416;SDS011;10869;52.238;10.716;2022-09-09T14:21:32;8.73;;;1.77;;
21416;SDS011;10869;52.238;10.716;2022-09-09T14:23:58;9.50;;;1.40;;
21416;SDS011;10869;52.238;10.716;2022-09-09T14:26:24;4.13;;;0.73;;
21416;SDS011;10869;52.238;10.716;2022-09-09T14:28:51;5.13;;;1.30;;
21416;SDS011;10869;52.238;10.716;2022-09-09T14:31:17;5.90;;;0.97;;
21416;SDS011;10869;52.238;10.716;2022-09-09T14:33:43;4.83;;;1.17;;
21416;SDS011;10869;52.238;10.716;2022-09-09T14:36:11;5.70;;;1.20;;
21416;SDS011;10869;52.238;10.716;2022-09-09T14:38:37;6.30;;;1.10;;
21416;SDS011;10869;52.238;10.716;2022-09-09T14:41:11;5.53;;;1.40;;
21416;SDS011;10869;52.238;10.716;2022-09-09T14:43:43;4.83;;;1.00;;
21416;SDS011;10869;52.238;10.716;2022-09-09T14:46:10;3.93;;;1.07;;
21416;SDS011;10869;52.238;10.716;2022-09-09T14:48:38;4.27;;;1.00;;
21416;SDS011;10869;52.238;10.716;2022-09-09T14:51:09;5.40;;;1.37;;
21416;SDS011;10869;52.238;10.716;2022-09-09T14:53:38;2.73;;;0.80;;
21416;SDS011;10869;52.238;10.716;2022-09-09T14:56:05;4.20;;;0.93;;
21416;SDS011;10869;52.238;10.716;2022-09-09T14:58:31;4.70;;;0.97;;
21416;SDS011;10869;52.238;10.716;2022-09-09T15:01:07;4.60;;;0.87;;
21416;SDS011;10869;52.238;10.716;2022-09-09T15:03:38;4.00;;;0.93;;
21416;SDS011;10869;52.238;10.716;2022-09-09T15:06:05;7.40;;;1.13;;
21416;SDS011;10869;52.238;10.716;2022-09-09T15:08:33;9.40;;;1.30;;
21416;SDS011;10869;52.238;10.716;2022-09-09T15:11:03;8.07;;;1.33;;
21416;SDS011;10869;52.238;10.716;2022-09-09T15:13:30;5.13;;;0.80;;
21416;SDS011;10869;52.238;10.716;2022-09-09T15:16:00;6.50;;;1.37;;
21416;SDS011;10869;52.238;10.716;2022-09-09T15:18:32;6.60;;;1.10;;
21416;SDS011;10869;52.238;10.716;2022-09-09T15:20:58;12.20;;;1.63;;
21416;SDS011;10869;52.238;10.716;2022-09-09T15:23:26;5.10;;;1.20;;
21416;SDS011;10869;52.238;10.716;2022-09-09T15:25:53;8.47;;;1.60;;
21416;SDS011;10869;52.238;10.716;2022-09-09T15:28:20;7.97;;;1.10;;
21416;SDS011;10869;52.238;10.716;2022-09-09T15:30:50;4.80;;;1.00;;
21416;SDS011;10869;52.238;10.716;2022-09-09T15:33:22;7.27;;;1.00;;
21416;SDS011;10869;52.238;10.716;2022-09-09T15:39:10;3.23;;;1.00;;
21416;SDS011;10869;52.238;10.716;2022-09-09T15:41:40;4.80;;;0.80;;
21416;SDS011;10869;52.238;10.716;2022-09-09T15:44:10;5.83;;;1.20;;
21416;SDS011;10869;52.238;10.716;2022-09-09T15:46:46;4.27;;;0.80;;
21416;SDS011;10869;52.238;10.716;2022-09-09T15:49:15;4.80;;;0.90;;
21416;SDS011;10869;52.238;10.716;2022-09-09T15:51:45;2.60;;;0.60;;
21416;SDS011;10869;52.238;10.716;2022-09-09T15:54:13;4.30;;;0.90;;
21416;SDS011;10869;52.238;10.716;2022-09-09T15:56:50;5.70;;;1.00;;
21416;SDS011;10869;52.238;10.716;2022-09-09T15:59:21;6.27;;;0.80;;
21416;SDS011;10869;52.238;10.716;2022-09-09T16:01:48;3.50;;;0.90;;
21416;SDS011;10869;52.238;10.716;2022-09-09T16:04:17;4.87;;;1.00;;
21416;SDS011;10869;52.238;10.716;2022-09-09T16:06:48;4.80;;;0.90;;
21416;SDS011;10869;52.238;10.716;2022-09-09T16:09:19;4.20;;;1.00;;
21416;SDS011;10869;52.238;10.716;2022-09-09T16:11:45;5.00;;;1.13;;
21416;SDS011;10869;52.238;10.716;2022-09-09T16:14:12;4.60;;;1.13;;
21416;SDS011;10869;52.238;10.716;2022-09-09T16:16:40;5.57;;;1.00;;
21416;SDS011;10869;52.238;10.716;2022-09-09T16:19:08;3.87;;;1.00;;
21416;SDS011;10869;52.238;10.716;2022-09-09T16:21:37;11.30;;;2.10;;
21416;SDS011;10869;52.238;10.716;2022-09-09T16:24:06;5.40;;;1.20;;
21416;SDS011;10869;52.238;10.716;2022-09-09T16:26:34;4.30;;;0.80;;
21416;SDS011;10869;52.238;10.716;2022-09-09T16:29:01;4.97;;;1.37;;
21416;SDS011;10869;52.238;10.716;2022-09-09T16:34:49;4.50;;;0.80;;
21416;SDS011;10869;52.238;10.716;2022-09-09T16:40:37;3.03;;;0.80;;
21416;SDS011;10869;52.238;10.716;2022-09-09T16:53:12;7.27;;;1.37;;
21416;SDS011;10869;52.238;10.716;2022-09-09T16:59:03;5.77;;;0.90;;
21416;SDS011;10869;52.238;10.716;2022-09-09T17:01:35;4.53;;;1.47;;
21416;SDS011;10869;52.238;10.716;2022-09-09T17:04:03;5.53;;;0.93;;
21416;SDS011;10869;52.238;10.716;2022-09-09T17:06:31;4.43;;;1.07;;
21416;SDS011;10869;52.238;10.716;2022-09-09T17:09:06;4.97;;;1.00;;
21416;SDS011;10869;52.238;10.716;2022-09-09T17:11:38;4.00;;;1.10;;
21416;SDS011;10869;52.238;10.716;2022-09-09T17:17:26;4.87;;;1.33;;
21416;SDS011;10869;52.238;10.716;2022-09-09T17:23:13;5.50;;;1.40;;
21416;SDS011;10869;52.238;10.716;2022-09-09T17:29:02;4.67;;;1.10;;
21416;SDS011;10869;52.238;10.716;2022-09-09T17:31:29;7.47;;;1.23;;
21416;SDS011;10869;52.238;10.716;2022-09-09T17:37:18;6.50;;;1.27;;
21416;SDS011;10869;52.238;10.716;2022-09-09T17:43:05;4.70;;;1.37;;
21416;SDS011;10869;52.238;10.716;2022-09-09T17:45:35;4.53;;;1.33;;
21416;SDS011;10869;52.238;10.716;2022-09-09T17:48:01;5.53;;;1.43;;
21416;SDS011;10869;52.238;10.716;2022-09-09T17:53:50;5.20;;;1.10;;
21416;SDS011;10869;52.238;10.716;2022-09-09T17:56:17;11.17;;;1.37;;
21416;SDS011;10869;52.238;10.716;2022-09-09T17:58:48;6.43;;;1.50;;
21416;SDS011;10869;52.238;10.716;2022-09-09T18:01:16;4.83;;;1.23;;
21416;SDS011;10869;52.238;10.716;2022-09-09T18:03:44;6.67;;;1.50;;
21416;SDS011;10869;52.238;10.716;2022-09-09T18:06:15;1.80;;;0.83;;
21416;SDS011;10869;52.238;10.716;2022-09-09T18:08:49;10.10;;;8.73;;
21416;SDS011;10869;52.238;10.716;2022-09-09T18:14:39;2.97;;;0.90;;
21416;SDS011;10869;52.238;10.716;2022-09-09T18:17:04;0.83;;;0.60;;
21416;SDS011;10869;52.238;10.716;2022-09-09T18:19:31;375.10;;;196.90;;
21416;SDS011;10869;52.238;10.716;2022-09-09T18:21:57;1.13;;;0.60;;
21416;SDS011;10869;52.238;10.716;2022-09-09T18:24:23;576.50;;;176.87;;
21416;SDS011;10869;52.238;10.716;2022-09-09T18:26:49;2.83;;;0.93;;
21416;SDS011;10869;52.238;10.716;2022-09-09T18:29:16;2.67;;;0.80;;
21416;SDS011;10869;52.238;10.716;2022-09-09T18:31:44;5.70;;;1.20;;
21416;SDS011;10869;52.238;10.716;2022-09-09T18:34:12;3.77;;;1.20;;
21416;SDS011;10869;52.238;10.716;2022-09-09T18:36:43;7.13;;;1.37;;
21416;SDS011;10869;52.238;10.716;2022-09-09T18:39:15;5.80;;;1.47;;
21416;SDS011;10869;52.238;10.716;2022-09-09T18:41:43;6.63;;;1.23;;
21416;SDS011;10869;52.238;10.716;2022-09-09T18:44:14;14.10;;;1.60;;
21416;SDS011;10869;52.238;10.716;2022-09-09T18:46:42;7.80;;;1.40;;
21416;SDS011;10869;52.238;10.716;2022-09-09T18:52:31;6.80;;;1.23;;
21416;SDS011;10869;52.238;10.716;2022-09-09T18:54:57;4.17;;;0.87;;
21416;SDS011;10869;52.238;10.716;2022-09-09T18:57:22;11.40;;;1.27;;
21416;SDS011;10869;52.238;10.716;2022-09-09T18:59:48;4.37;;;0.90;;
21416;SDS011;10869;52.238;10.716;2022-09-09T19:05:37;7.73;;;1.40;;
21416;SDS011;10869;52.238;10.716;2022-09-09T19:08:03;3.27;;;0.93;;
21416;SDS011;10869;52.238;10.716;2022-09-09T19:10:34;5.37;;;0.93;;
21416;SDS011;10869;52.238;10.716;2022-09-09T19:13:00;4.33;;;0.90;;
21416;SDS011;10869;52.238;10.716;2022-09-09T19:15:29;5.70;;;0.97;;
21416;SDS011;10869;52.238;10.716;2022-09-09T19:21:20;2.50;;;0.60;;
21416;SDS011;10869;52.238;10.716;2022-09-09T19:23:55;4.37;;;0.60;;
21416;SDS011;10869;52.238;10.716;2022-09-09T19:29:47;6.25;;;1.10;;
21416;SDS011;10869;52.238;10.716;2022-09-09T19:32:13;5.30;;;0.80;;
21416;SDS011;10869;52.238;10.716;2022-09-09T19:34:39;6.67;;;0.90;;
21416;SDS011;10869;52.238;10.716;2022-09-09T19:37:04;3.37;;;0.90;;
21416;SDS011;10869;52.238;10.716;2022-09-09T19:42:53;3.13;;;0.60;;
21416;SDS011;10869;52.238;10.716;2022-09-09T19:45:18;3.03;;;1.00;;
21416;SDS011;10869;52.238;10.716;2022-09-09T19:51:15;5.10;;;0.93;;
21416;SDS011;10869;52.238;10.716;2022-09-09T19:57:04;9.40;;;0.93;;
21416;SDS011;10869;52.238;10.716;2022-09-09T19:59:30;4.50;;;1.00;;
21416;SDS011;10869;52.238;10.716;2022-09-09T20:01:56;4.13;;;1.00;;
21416;SDS011;10869;52.238;10.716;2022-09-09T20:04:22;1.87;;;0.70;;
21416;SDS011;10869;52.238;10.716;2022-09-09T20:06:48;2.60;;;0.70;;
21416;SDS011;10869;52.238;10.716;2022-09-09T20:09:17;5.33;;;0.70;;
21416;SDS011;10869;52.238;10.716;2022-09-09T20:11:44;12.43;;;0.97;;
21416;SDS011;10869;52.238;10.716;2022-09-09T20:14:11;2.33;;;0.70;;
21416;SDS011;10869;52.238;10.716;2022-09-09T20:16:37;35.17;;;32.43;;
21416;SDS011;10869;52.238;10.716;2022-09-09T20:19:04;6.93;;;0.80;;
21416;SDS011;10869;52.238;10.716;2022-09-09T20:21:32;4.03;;;0.80;;
21416;SDS011;10869;52.238;10.716;2022-09-09T20:24:01;3.87;;;1.03;;
21416;SDS011;10869;52.238;10.716;2022-09-09T20:26:29;3.90;;;0.67;;
21416;SDS011;10869;52.238;10.716;2022-09-09T20:28:59;7.67;;;0.90;;
21416;SDS011;10869;52.238;10.716;2022-09-09T20:31:29;6.33;;;1.30;;
21416;SDS011;10869;52.238;10.716;2022-09-09T20:33:56;9.23;;;1.27;;
21416;SDS011;10869;52.238;10.716;2022-09-09T20:36:27;4.13;;;1.07;;
21416;SDS011;10869;52.238;10.716;2022-09-09T20:38:55;5.10;;;1.20;;
21416;SDS011;10869;52.238;10.716;2022-09-09T20:41:33;4.33;;;0.73;;
21416;SDS011;10869;52.238;10.716;2022-09-09T20:44:01;4.17;;;0.80;;
21416;SDS011;10869;52.238;10.716;2022-09-09T20:46:34;4.70;;;1.10;;
21416;SDS011;10869;52.238;10.716;2022-09-09T20:49:01;4.20;;;1.43;;
21416;SDS011;10869;52.238;10.716;2022-09-09T20:51:28;4.67;;;1.30;;
21416;SDS011;10869;52.238;10.716;2022-09-09T20:54:01;2.53;;;0.73;;
21416;SDS011;10869;52.238;10.716;2022-09-09T20:56:33;6.77;;;1.07;;
21416;SDS011;10869;52.238;10.716;2022-09-09T20:59:03;5.60;;;1.30;;
21416;SDS011;10869;52.238;10.716;2022-09-09T21:01:29;2.93;;;1.00;;
21416;SDS011;10869;52.238;10.716;2022-09-09T21:03:55;5.07;;;1.23;;
21416;SDS011;10869;52.238;10.716;2022-09-09T21:06:21;4.67;;;1.20;;
21416;SDS011;10869;52.238;10.716;2022-09-09T21:08:47;4.13;;;1.00;;
21416;SDS011;10869;52.238;10.716;2022-09-09T21:11:13;6.80;;;1.20;;
21416;SDS011;10869;52.238;10.716;2022-09-09T21:13:40;4.63;;;1.07;;
21416;SDS011;10869;52.238;10.716;2022-09-09T21:16:06;6.10;;;1.17;;
21416;SDS011;10869;52.238;10.716;2022-09-09T21:18:33;5.33;;;1.43;;
21416;SDS011;10869;52.238;10.716;2022-09-09T21:21:00;5.67;;;0.93;;
21416;SDS011;10869;52.238;10.716;2022-09-09T21:23:26;3.97;;;0.93;;
21416;SDS011;10869;52.238;10.716;2022-09-09T21:25:52;3.73;;;0.73;;
21416;SDS011;10869;52.238;10.716;2022-09-09T21:28:19;6.47;;;1.07;;
21416;SDS011;10869;52.238;10.716;2022-09-09T21:30:46;6.43;;;1.30;;
21416;SDS011;10869;52.238;10.716;2022-09-09T21:33:17;6.37;;;1.13;;
21416;SDS011;10869;52.238;10.716;2022-09-09T21:35:44;4.50;;;1.17;;
21416;SDS011;10869;52.238;10.716;2022-09-09T21:38:11;5.43;;;1.30;;
21416;SDS011;10869;52.238;10.716;2022-09-09T21:40:40;0.90;;;0.53;;
21416;SDS011;10869;52.238;10.716;2022-09-09T21:43:06;5.83;;;0.90;;